Overview Statistics Trail Chart Weather Telemetry Raw packets
 

This is the latest recevied weather packets stored in our database for station/object CW79215. If no packets are shown the sender has not sent any weather packets the latest 10 day(s).

<< 14 15 16 17 18 19 20 >>
Time Temp. Humidity Pressure Rain* Wind** Luminosity Snow
1788358837 25.56° C 37% 1030.5 hPa - - - -
1788357937 26.11° C 33% 1030.4 hPa - - - -
1788357037 25.56° C 32% 1030.5 hPa - - - -
1788356137 26.11° C 33% 1030.6 hPa - - - -
1788355237 25.56° C 34% 1030.7 hPa - - - -
1788354337 25° C 33% 1030.9 hPa - - - -
1788353437 25.56° C 32% 1030.9 hPa - - - -
1788352537 25.56° C 32% 1031 hPa - - - -
1788351636 26.67° C 31% 1030.9 hPa - - - -
1788350736 25.56° C 33% 1031.1 hPa - - - -
1788349836 26.11° C 32% 1031.2 hPa - - - -
1788348936 26.11° C 32% 1031.2 hPa - - - -
1788348036 26.11° C 34% 1031.2 hPa - - - -
1788347136 25.56° C 34% 1031.3 hPa - - - -
1788346236 25° C 37% 1031.4 hPa - - - -
1788345336 25° C 38% 1031.4 hPa - - - -
1788344454 24.44° C 39% 1031.7 hPa - - - -
1788343536 24.44° C 41% 1031.7 hPa - - - -
1788342636 24.44° C 43% 1031.7 hPa - - - -
1788341735 23.89° C 43% 1031.8 hPa - - - -
1788340835 22.22° C 47% 1031.9 hPa - - - -
1788339935 23.33° C 43% 1031.8 hPa - - - -
1788339034 22.78° C 45% 1031.9 hPa - - - -
1788338136 22.78° C 46% 1031.9 hPa - - - -
1788337236 21.67° C 48% 1031.8 hPa - - - -

* Rain since midnight (hover to see other rain measurements)
** Current wind speed in m/s (hover to see current wind gust speed)